Brockley, United Kingdom
Current Conditions -  °F | °C
As of 5:20 AM on Monday 20 Oct 2014 (Local Time) from EGLC Reporting Station
Broken Clouds Broken Clouds  
Wind Chill: 14°   Ceiling: 2400
Heat Index: 14°   Visibility: 6mi
Dew Point: 10°   Wind: 12mph
Humidity: 77%   Direction: 250°WSW
Pressure: 30"   Gusts: NA
Location:  51.45°N, 0.03°W
Report Text: EGLC 200420Z AUTO 25010KT 220V280 9999 SCT018/// BKN024/// 14/10 Q1016
Loading
Personal Weather Stations






























Interactive Weather Map
Tropical Storm Tracking
New forecast layout! Learn more

10-Day Weather Forecast

Advertisements
Track Severe Weather on mobile